sensor_id;sensor_type;location;lat;lon;timestamp;pressure;altitude;pressure_sealevel;temperature;humidity
3294;BME280;1659;51.470;6.770;2024-02-23T00:00:40;98729.53;;;4.94;100.00
3294;BME280;1659;51.470;6.770;2024-02-23T00:03:06;98737.50;;;4.89;100.00
3294;BME280;1659;51.470;6.770;2024-02-23T00:05:33;98733.28;;;4.85;100.00
3294;BME280;1659;51.470;6.770;2024-02-23T00:08:00;98747.31;;;4.82;100.00
3294;BME280;1659;51.470;6.770;2024-02-23T00:10:28;98753.50;;;4.78;100.00
3294;BME280;1659;51.470;6.770;2024-02-23T00:12:54;98766.66;;;4.75;100.00
3294;BME280;1659;51.470;6.770;2024-02-23T00:15:21;98781.59;;;4.71;100.00
3294;BME280;1659;51.470;6.770;2024-02-23T00:17:49;98768.63;;;4.68;100.00
3294;BME280;1659;51.470;6.770;2024-02-23T00:20:16;98779.13;;;4.67;100.00
3294;BME280;1659;51.470;6.770;2024-02-23T00:22:42;98786.94;;;4.68;100.00
3294;BME280;1659;51.470;6.770;2024-02-23T00:25:09;98793.78;;;4.72;100.00
3294;BME280;1659;51.470;6.770;2024-02-23T00:27:37;98792.84;;;4.75;100.00
3294;BME280;1659;51.470;6.770;2024-02-23T00:30:06;98804.03;;;4.80;100.00
3294;BME280;1659;51.470;6.770;2024-02-23T00:32:32;98798.72;;;4.83;100.00
3294;BME280;1659;51.470;6.770;2024-02-23T00:34:59;98815.19;;;4.87;100.00
3294;BME280;1659;51.470;6.770;2024-02-23T00:37:25;98823.88;;;4.89;100.00
3294;BME280;1659;51.470;6.770;2024-02-23T00:39:52;98816.84;;;4.91;100.00
3294;BME280;1659;51.470;6.770;2024-02-23T00:42:18;98824.59;;;4.94;100.00
3294;BME280;1659;51.470;6.770;2024-02-23T00:44:47;98823.69;;;4.97;100.00
3294;BME280;1659;51.470;6.770;2024-02-23T00:47:13;98834.91;;;5.00;100.00
3294;BME280;1659;51.470;6.770;2024-02-23T00:49:40;98837.47;;;5.03;100.00
3294;BME280;1659;51.470;6.770;2024-02-23T00:52:07;98833.88;;;5.06;100.00
3294;BME280;1659;51.470;6.770;2024-02-23T00:54:33;98847.81;;;5.06;100.00
3294;BME280;1659;51.470;6.770;2024-02-23T00:57:00;98847.81;;;5.06;100.00
3294;BME280;1659;51.470;6.770;2024-02-23T00:59:26;98858.28;;;5.06;100.00
3294;BME280;1659;51.470;6.770;2024-02-23T01:01:55;98859.25;;;5.04;100.00
3294;BME280;1659;51.470;6.770;2024-02-23T01:04:21;98852.31;;;5.01;100.00
3294;BME280;1659;51.470;6.770;2024-02-23T01:06:48;98855.13;;;4.95;100.00
3294;BME280;1659;51.470;6.770;2024-02-23T01:09:14;98859.56;;;4.91;100.00
3294;BME280;1659;51.470;6.770;2024-02-23T01:11:42;98864.81;;;4.91;100.00
3294;BME280;1659;51.470;6.770;2024-02-23T01:14:08;98874.38;;;4.92;100.00
3294;BME280;1659;51.470;6.770;2024-02-23T01:16:35;98876.91;;;4.96;100.00
3294;BME280;1659;51.470;6.770;2024-02-23T01:19:03;98883.00;;;4.96;100.00
3294;BME280;1659;51.470;6.770;2024-02-23T01:21:29;98884.75;;;4.96;100.00
3294;BME280;1659;51.470;6.770;2024-02-23T01:23:56;98878.59;;;4.98;100.00
3294;BME280;1659;51.470;6.770;2024-02-23T01:26:23;98889.88;;;5.00;100.00
3294;BME280;1659;51.470;6.770;2024-02-23T01:28:49;98883.66;;;5.04;100.00
3294;BME280;1659;51.470;6.770;2024-02-23T01:31:16;98885.38;;;5.05;100.00
3294;BME280;1659;51.470;6.770;2024-02-23T01:33:43;98888.94;;;5.03;100.00
3294;BME280;1659;51.470;6.770;2024-02-23T01:36:11;98896.81;;;5.01;100.00
3294;BME280;1659;51.470;6.770;2024-02-23T01:38:37;98896.88;;;5.00;100.00
3294;BME280;1659;51.470;6.770;2024-02-23T01:41:04;98902.16;;;4.98;100.00
3294;BME280;1659;51.470;6.770;2024-02-23T01:43:31;98890.94;;;4.93;100.00
3294;BME280;1659;51.470;6.770;2024-02-23T01:45:58;98903.22;;;4.91;100.00
3294;BME280;1659;51.470;6.770;2024-02-23T01:48:25;98898.06;;;4.88;100.00
3294;BME280;1659;51.470;6.770;2024-02-23T01:50:53;98893.78;;;4.84;100.00
3294;BME280;1659;51.470;6.770;2024-02-23T01:53:22;98911.28;;;4.82;100.00
3294;BME280;1659;51.470;6.770;2024-02-23T01:55:51;98899.00;;;4.84;100.00
3294;BME280;1659;51.470;6.770;2024-02-23T01:58:18;98904.13;;;4.88;100.00
3294;BME280;1659;51.470;6.770;2024-02-23T02:00:45;98904.88;;;4.94;100.00
3294;BME280;1659;51.470;6.770;2024-02-23T02:03:11;98909.91;;;5.01;100.00
3294;BME280;1659;51.470;6.770;2024-02-23T02:05:38;98941.19;;;5.07;100.00
3294;BME280;1659;51.470;6.770;2024-02-23T02:08:05;98904.34;;;5.14;100.00
3294;BME280;1659;51.470;6.770;2024-02-23T02:10:33;98911.25;;;5.18;100.00
3294;BME280;1659;51.470;6.770;2024-02-23T02:13:03;98910.25;;;5.22;100.00
3294;BME280;1659;51.470;6.770;2024-02-23T02:15:30;98908.44;;;5.24;100.00
3294;BME280;1659;51.470;6.770;2024-02-23T02:17:57;98912.78;;;5.25;100.00
3294;BME280;1659;51.470;6.770;2024-02-23T02:20:24;98913.59;;;5.27;100.00
3294;BME280;1659;51.470;6.770;2024-02-23T02:22:51;98914.41;;;5.29;100.00
3294;BME280;1659;51.470;6.770;2024-02-23T02:25:18;98932.72;;;5.30;100.00
3294;BME280;1659;51.470;6.770;2024-02-23T02:27:45;98944.88;;;5.33;100.00
3294;BME280;1659;51.470;6.770;2024-02-23T02:30:12;98934.34;;;5.35;100.00
3294;BME280;1659;51.470;6.770;2024-02-23T02:32:39;98937.88;;;5.34;100.00
3294;BME280;1659;51.470;6.770;2024-02-23T02:35:06;98926.69;;;5.27;100.00
3294;BME280;1659;51.470;6.770;2024-02-23T02:37:33;98936.50;;;5.19;100.00
3294;BME280;1659;51.470;6.770;2024-02-23T02:40:01;98935.72;;;5.15;100.00
3294;BME280;1659;51.470;6.770;2024-02-23T02:42:28;98944.56;;;5.11;100.00
3294;BME280;1659;51.470;6.770;2024-02-23T02:44:56;98944.66;;;5.08;100.00
3294;BME280;1659;51.470;6.770;2024-02-23T02:47:22;98949.91;;;5.06;100.00
3294;BME280;1659;51.470;6.770;2024-02-23T02:49:49;98948.19;;;5.07;100.00
3294;BME280;1659;51.470;6.770;2024-02-23T02:52:16;98952.56;;;5.05;100.00
3294;BME280;1659;51.470;6.770;2024-02-23T02:54:42;98949.13;;;5.03;100.00
3294;BME280;1659;51.470;6.770;2024-02-23T02:57:09;98955.25;;;5.03;100.00
3294;BME280;1659;51.470;6.770;2024-02-23T02:59:36;98951.72;;;5.04;100.00
3294;BME280;1659;51.470;6.770;2024-02-23T03:02:04;98956.09;;;5.04;100.00
3294;BME280;1659;51.470;6.770;2024-02-23T03:04:30;98952.63;;;5.03;100.00
3294;BME280;1659;51.470;6.770;2024-02-23T03:06:57;98965.72;;;5.03;100.00
3294;BME280;1659;51.470;6.770;2024-02-23T03:09:23;98970.09;;;5.01;100.00
3294;BME280;1659;51.470;6.770;2024-02-23T03:11:50;98970.19;;;5.00;100.00
3294;BME280;1659;51.470;6.770;2024-02-23T03:14:16;98957.16;;;4.97;100.00
3294;BME280;1659;51.470;6.770;2024-02-23T03:16:46;98959.78;;;4.97;99.99
3294;BME280;1659;51.470;6.770;2024-02-23T03:19:14;98966.75;;;4.96;99.50
3294;BME280;1659;51.470;6.770;2024-02-23T03:21:41;98976.34;;;4.97;99.97
3294;BME280;1659;51.470;6.770;2024-02-23T03:24:07;98976.34;;;4.97;99.58
3294;BME280;1659;51.470;6.770;2024-02-23T03:26:34;98978.94;;;4.97;98.59
3294;BME280;1659;51.470;6.770;2024-02-23T03:29:00;98976.25;;;5.00;99.60
3294;BME280;1659;51.470;6.770;2024-02-23T03:31:27;98981.44;;;5.03;99.69
3294;BME280;1659;51.470;6.770;2024-02-23T03:33:54;98982.22;;;5.07;99.48
3294;BME280;1659;51.470;6.770;2024-02-23T03:36:22;98985.69;;;5.07;99.82
3294;BME280;1659;51.470;6.770;2024-02-23T03:38:48;98992.66;;;5.08;100.00
3294;BME280;1659;51.470;6.770;2024-02-23T03:41:15;98994.38;;;5.08;99.65
3294;BME280;1659;51.470;6.770;2024-02-23T03:43:41;98982.06;;;5.11;99.03
3294;BME280;1659;51.470;6.770;2024-02-23T03:46:08;98996.91;;;5.13;99.36
3294;BME280;1659;51.470;6.770;2024-02-23T03:48:34;98997.78;;;5.11;99.20
3294;BME280;1659;51.470;6.770;2024-02-23T03:51:03;98997.81;;;5.10;99.86
3294;BME280;1659;51.470;6.770;2024-02-23T03:53:31;98994.28;;;5.13;100.00
3294;BME280;1659;51.470;6.770;2024-02-23T03:55:58;98992.50;;;5.13;100.00
3294;BME280;1659;51.470;6.770;2024-02-23T03:58:25;98993.31;;;5.15;100.00
3294;BME280;1659;51.470;6.770;2024-02-23T04:00:51;99002.84;;;5.19;100.00
3294;BME280;1659;51.470;6.770;2024-02-23T04:03:18;99001.91;;;5.22;98.82
3294;BME280;1659;51.470;6.770;2024-02-23T04:05:45;99014.94;;;5.23;98.15
3294;BME280;1659;51.470;6.770;2024-02-23T04:08:12;99012.34;;;5.23;98.80
3294;BME280;1659;51.470;6.770;2024-02-23T04:10:40;99014.91;;;5.25;98.64
3294;BME280;1659;51.470;6.770;2024-02-23T04:13:06;99013.97;;;5.27;98.40
3294;BME280;1659;51.470;6.770;2024-02-23T04:15:33;99015.66;;;5.30;98.22
3294;BME280;1659;51.470;6.770;2024-02-23T04:18:00;99003.38;;;5.32;97.79
3294;BME280;1659;51.470;6.770;2024-02-23T04:20:26;99008.53;;;5.35;97.07
3294;BME280;1659;51.470;6.770;2024-02-23T04:22:53;99011.97;;;5.37;97.79
3294;BME280;1659;51.470;6.770;2024-02-23T04:25:19;99017.16;;;5.40;97.59
3294;BME280;1659;51.470;6.770;2024-02-23T04:27:47;99006.56;;;5.43;97.17
3294;BME280;1659;51.470;6.770;2024-02-23T04:30:14;99010.03;;;5.45;97.21
3294;BME280;1659;51.470;6.770;2024-02-23T04:32:41;99017.78;;;5.48;96.59
3294;BME280;1659;51.470;6.770;2024-02-23T04:35:08;99019.47;;;5.51;97.25
3294;BME280;1659;51.470;6.770;2024-02-23T04:37:34;99028.19;;;5.52;97.21
3294;BME280;1659;51.470;6.770;2024-02-23T04:40:01;99027.31;;;5.53;97.89
3294;BME280;1659;51.470;6.770;2024-02-23T04:42:29;99043.03;;;5.53;97.95
3294;BME280;1659;51.470;6.770;2024-02-23T04:44:57;99056.94;;;5.55;97.52
3294;BME280;1659;51.470;6.770;2024-02-23T04:47:23;99039.41;;;5.57;96.69
3294;BME280;1659;51.470;6.770;2024-02-23T04:49:50;99034.22;;;5.55;97.08
3294;BME280;1659;51.470;6.770;2024-02-23T04:52:16;99042.03;;;5.57;97.10
3294;BME280;1659;51.470;6.770;2024-02-23T04:54:43;99043.75;;;5.58;97.50
3294;BME280;1659;51.470;6.770;2024-02-23T04:57:09;99059.50;;;5.58;97.34
3294;BME280;1659;51.470;6.770;2024-02-23T04:59:36;99052.44;;;5.60;95.21
3294;BME280;1659;51.470;6.770;2024-02-23T05:02:04;99061.16;;;5.60;95.08
3294;BME280;1659;51.470;6.770;2024-02-23T05:04:31;99055.91;;;5.60;95.19
3294;BME280;1659;51.470;6.770;2024-02-23T05:06:58;99062.88;;;5.61;95.73
3294;BME280;1659;51.470;6.770;2024-02-23T05:09:25;99060.25;;;5.61;95.81
3294;BME280;1659;51.470;6.770;2024-02-23T05:11:51;99056.75;;;5.61;95.09
3294;BME280;1659;51.470;6.770;2024-02-23T05:14:18;99058.50;;;5.62;94.98
3294;BME280;1659;51.470;6.770;2024-02-23T05:16:44;99054.09;;;5.62;93.87
3294;BME280;1659;51.470;6.770;2024-02-23T05:19:12;99065.44;;;5.64;93.46
3294;BME280;1659;51.470;6.770;2024-02-23T05:21:39;99088.06;;;5.67;91.79
3294;BME280;1659;51.470;6.770;2024-02-23T05:24:05;99053.94;;;5.70;91.46
3294;BME280;1659;51.470;6.770;2024-02-23T05:26:32;99067.00;;;5.72;90.78
3294;BME280;1659;51.470;6.770;2024-02-23T05:28:58;99070.44;;;5.74;90.40
3294;BME280;1659;51.470;6.770;2024-02-23T05:31:44;99059.91;;;5.75;89.02
3294;BME280;1659;51.470;6.770;2024-02-23T05:34:12;99077.28;;;5.78;90.23
3294;BME280;1659;51.470;6.770;2024-02-23T05:36:39;99059.88;;;5.77;89.59
3294;BME280;1659;51.470;6.770;2024-02-23T05:39:05;99070.34;;;5.77;89.30
3294;BME280;1659;51.470;6.770;2024-02-23T05:41:34;99070.28;;;5.78;89.10
3294;BME280;1659;51.470;6.770;2024-02-23T05:44:01;99093.03;;;5.78;89.41
3294;BME280;1659;51.470;6.770;2024-02-23T05:46:29;99066.78;;;5.79;88.81
3294;BME280;1659;51.470;6.770;2024-02-23T05:48:55;99078.16;;;5.78;89.48
3294;BME280;1659;51.470;6.770;2024-02-23T05:51:24;99076.41;;;5.79;88.79
3294;BME280;1659;51.470;6.770;2024-02-23T05:53:51;99068.59;;;5.77;88.31
3294;BME280;1659;51.470;6.770;2024-02-23T05:56:17;99080.88;;;5.75;88.86
3294;BME280;1659;51.470;6.770;2024-02-23T05:58:44;99066.03;;;5.74;89.22
3294;BME280;1659;51.470;6.770;2024-02-23T06:01:10;99074.75;;;5.75;88.81
3294;BME280;1659;51.470;6.770;2024-02-23T06:03:37;99075.63;;;5.75;89.69
3294;BME280;1659;51.470;6.770;2024-02-23T06:06:06;99092.19;;;5.76;89.22
3294;BME280;1659;51.470;6.770;2024-02-23T06:08:35;99084.31;;;5.77;89.52
3294;BME280;1659;51.470;6.770;2024-02-23T06:11:02;99087.75;;;5.79;89.00
3294;BME280;1659;51.470;6.770;2024-02-23T06:13:29;99081.63;;;5.80;88.96
3294;BME280;1659;51.470;6.770;2024-02-23T06:15:55;99078.97;;;5.82;89.64
3294;BME280;1659;51.470;6.770;2024-02-23T06:18:22;99088.56;;;5.81;89.67
3294;BME280;1659;51.470;6.770;2024-02-23T06:20:49;99070.22;;;5.81;89.90
3294;BME280;1659;51.470;6.770;2024-02-23T06:23:15;99081.56;;;5.82;89.33
3294;BME280;1659;51.470;6.770;2024-02-23T06:25:43;99064.06;;;5.82;89.24
3294;BME280;1659;51.470;6.770;2024-02-23T06:28:10;99066.69;;;5.82;89.13
3294;BME280;1659;51.470;6.770;2024-02-23T06:30:37;99077.16;;;5.84;89.33
3294;BME280;1659;51.470;6.770;2024-02-23T06:33:03;99060.53;;;5.83;89.57
3294;BME280;1659;51.470;6.770;2024-02-23T06:35:30;99066.69;;;5.82;89.96
3294;BME280;1659;51.470;6.770;2024-02-23T06:37:57;99067.56;;;5.83;89.45
3294;BME280;1659;51.470;6.770;2024-02-23T06:40:23;99064.94;;;5.83;90.19
3294;BME280;1659;51.470;6.770;2024-02-23T06:42:52;99049.25;;;5.81;89.51
3294;BME280;1659;51.470;6.770;2024-02-23T06:45:18;99038.72;;;5.83;89.93
3294;BME280;1659;51.470;6.770;2024-02-23T06:47:51;99050.91;;;5.85;88.96
3294;BME280;1659;51.470;6.770;2024-02-23T06:50:17;99036.84;;;5.88;88.74
3294;BME280;1659;51.470;6.770;2024-02-23T06:52:44;99034.19;;;5.90;88.94
3294;BME280;1659;51.470;6.770;2024-02-23T06:55:12;99038.47;;;5.92;88.97
3294;BME280;1659;51.470;6.770;2024-02-23T06:57:39;99042.78;;;5.95;88.89
3294;BME280;1659;51.470;6.770;2024-02-23T07:00:08;99055.69;;;6.02;89.03
3294;BME280;1659;51.470;6.770;2024-02-23T07:02:34;99056.44;;;6.08;88.41
3294;BME280;1659;51.470;6.770;2024-02-23T07:05:03;99041.41;;;6.13;87.85
3294;BME280;1659;51.470;6.770;2024-02-23T07:07:30;99051.78;;;6.17;86.05
3294;BME280;1659;51.470;6.770;2024-02-23T07:09:58;99044.75;;;6.19;86.15
3294;BME280;1659;51.470;6.770;2024-02-23T07:12:24;99056.00;;;6.23;86.59
3294;BME280;1659;51.470;6.770;2024-02-23T07:14:52;99056.00;;;6.23;87.07
3294;BME280;1659;51.470;6.770;2024-02-23T07:17:20;99049.84;;;6.24;86.30
3294;BME280;1659;51.470;6.770;2024-02-23T07:19:47;99058.53;;;6.26;86.40
3294;BME280;1659;51.470;6.770;2024-02-23T07:22:13;99050.59;;;6.29;86.08
3294;BME280;1659;51.470;6.770;2024-02-23T07:24:41;99046.91;;;6.35;84.91
3294;BME280;1659;51.470;6.770;2024-02-23T07:27:08;99049.22;;;6.46;84.44
3294;BME280;1659;51.470;6.770;2024-02-23T07:29:35;99032.44;;;6.51;85.22
3294;BME280;1659;51.470;6.770;2024-02-23T07:32:01;99046.09;;;6.63;85.65
3294;BME280;1659;51.470;6.770;2024-02-23T07:34:30;99036.97;;;6.74;86.07
3294;BME280;1659;51.470;6.770;2024-02-23T07:36:57;99042.91;;;6.81;85.74
3294;BME280;1659;51.470;6.770;2024-02-23T07:39:24;99030.56;;;6.83;84.50
3294;BME280;1659;51.470;6.770;2024-02-23T07:41:50;99046.44;;;6.80;84.24
3294;BME280;1659;51.470;6.770;2024-02-23T07:44:17;99043.91;;;6.77;84.11
3294;BME280;1659;51.470;6.770;2024-02-23T07:46:43;99043.88;;;6.78;83.63
3294;BME280;1659;51.470;6.770;2024-02-23T07:49:10;99048.06;;;6.84;83.01
3294;BME280;1659;51.470;6.770;2024-02-23T07:51:37;99048.72;;;6.91;82.41
3294;BME280;1659;51.470;6.770;2024-02-23T07:54:04;99050.13;;;7.03;82.99
3294;BME280;1659;51.470;6.770;2024-02-23T07:56:31;99067.22;;;7.14;82.91
3294;BME280;1659;51.470;6.770;2024-02-23T07:58:58;99056.41;;;7.25;83.12
3294;BME280;1659;51.470;6.770;2024-02-23T08:01:24;99049.31;;;7.27;83.18
3294;BME280;1659;51.470;6.770;2024-02-23T08:03:51;99052.41;;;7.40;83.67
3294;BME280;1659;51.470;6.770;2024-02-23T08:06:17;99055.31;;;7.57;83.55
3294;BME280;1659;51.470;6.770;2024-02-23T08:08:46;99055.75;;;7.70;82.30
3294;BME280;1659;51.470;6.770;2024-02-23T08:11:12;99052.06;;;7.76;81.98
3294;BME280;1659;51.470;6.770;2024-02-23T08:13:39;99051.88;;;7.81;81.03
3294;BME280;1659;51.470;6.770;2024-02-23T08:16:06;99056.66;;;7.69;79.68
3294;BME280;1659;51.470;6.770;2024-02-23T08:18:33;99072.84;;;7.57;79.08
3294;BME280;1659;51.470;6.770;2024-02-23T08:21:00;99059.06;;;7.50;79.88
3294;BME280;1659;51.470;6.770;2024-02-23T08:23:28;99050.72;;;7.64;80.31
3294;BME280;1659;51.470;6.770;2024-02-23T08:25:56;99059.66;;;7.84;78.95
3294;BME280;1659;51.470;6.770;2024-02-23T08:28:23;99038.88;;;8.01;78.79
3294;BME280;1659;51.470;6.770;2024-02-23T08:30:50;99038.22;;;8.20;77.70
3294;BME280;1659;51.470;6.770;2024-02-23T08:33:17;99040.50;;;8.29;75.60
3294;BME280;1659;51.470;6.770;2024-02-23T08:35:44;99043.88;;;8.32;74.67
3294;BME280;1659;51.470;6.770;2024-02-23T08:38:10;99045.13;;;8.47;75.11
3294;BME280;1659;51.470;6.770;2024-02-23T08:40:37;99034.81;;;8.65;74.79
3294;BME280;1659;51.470;6.770;2024-02-23T08:43:06;99022.94;;;8.77;74.04
3294;BME280;1659;51.470;6.770;2024-02-23T08:45:32;99028.16;;;9.00;72.70
3294;BME280;1659;51.470;6.770;2024-02-23T08:47:59;99043.56;;;9.10;73.58
3294;BME280;1659;51.470;6.770;2024-02-23T08:50:26;99051.81;;;9.02;73.37
3294;BME280;1659;51.470;6.770;2024-02-23T08:52:52;99025.97;;;9.10;74.50
3294;BME280;1659;51.470;6.770;2024-02-23T08:55:19;99067.13;;;9.14;73.44
3294;BME280;1659;51.470;6.770;2024-02-23T08:57:46;99061.41;;;9.25;73.46
3294;BME280;1659;51.470;6.770;2024-02-23T09:00:15;99045.81;;;9.41;73.98
3294;BME280;1659;51.470;6.770;2024-02-23T09:02:41;99071.50;;;9.36;71.89
3294;BME280;1659;51.470;6.770;2024-02-23T09:05:08;99064.91;;;9.03;71.75
3294;BME280;1659;51.470;6.770;2024-02-23T09:07:35;99051.66;;;8.83;72.83
3294;BME280;1659;51.470;6.770;2024-02-23T09:10:02;99049.16;;;8.80;73.60
3294;BME280;1659;51.470;6.770;2024-02-23T09:12:30;99051.09;;;8.75;73.72
3294;BME280;1659;51.470;6.770;2024-02-23T09:14:56;99060.22;;;8.66;73.73
3294;BME280;1659;51.470;6.770;2024-02-23T09:17:24;99068.00;;;8.69;75.24
3294;BME280;1659;51.470;6.770;2024-02-23T09:19:51;99065.41;;;8.67;74.75
3294;BME280;1659;51.470;6.770;2024-02-23T09:22:17;99034.50;;;8.73;74.15
3294;BME280;1659;51.470;6.770;2024-02-23T09:24:44;99065.56;;;8.86;74.50
3294;BME280;1659;51.470;6.770;2024-02-23T09:27:11;99052.47;;;8.85;73.74
3294;BME280;1659;51.470;6.770;2024-02-23T09:29:37;99055.41;;;8.77;74.31
3294;BME280;1659;51.470;6.770;2024-02-23T09:32:04;99072.13;;;8.53;73.15
3294;BME280;1659;51.470;6.770;2024-02-23T09:34:32;99072.78;;;8.34;72.37
3294;BME280;1659;51.470;6.770;2024-02-23T09:36:59;99078.66;;;8.17;72.53
3294;BME280;1659;51.470;6.770;2024-02-23T09:39:26;99068.53;;;8.06;73.60
3294;BME280;1659;51.470;6.770;2024-02-23T09:41:56;99074.91;;;7.99;74.29
3294;BME280;1659;51.470;6.770;2024-02-23T09:44:23;99082.16;;;7.92;74.79
3294;BME280;1659;51.470;6.770;2024-02-23T09:46:49;99081.41;;;7.89;74.87
3294;BME280;1659;51.470;6.770;2024-02-23T09:49:16;99087.75;;;7.83;74.31
3294;BME280;1659;51.470;6.770;2024-02-23T09:51:44;99080.06;;;7.77;72.76
3294;BME280;1659;51.470;6.770;2024-02-23T09:54:11;99070.47;;;7.76;72.04
3294;BME280;1659;51.470;6.770;2024-02-23T09:56:38;99084.41;;;7.78;73.47
3294;BME280;1659;51.470;6.770;2024-02-23T09:59:05;99080.72;;;7.84;74.19
3294;BME280;1659;51.470;6.770;2024-02-23T10:01:32;99092.81;;;7.88;74.65
3294;BME280;1659;51.470;6.770;2024-02-23T10:04:01;99078.69;;;7.92;73.80
3294;BME280;1659;51.470;6.770;2024-02-23T10:06:29;99081.97;;;7.99;74.90
3294;BME280;1659;51.470;6.770;2024-02-23T10:08:57;99082.56;;;8.05;75.02
3294;BME280;1659;51.470;6.770;2024-02-23T10:11:24;99089.50;;;8.08;74.82
3294;BME280;1659;51.470;6.770;2024-02-23T10:13:51;99075.38;;;8.10;74.30
3294;BME280;1659;51.470;6.770;2024-02-23T10:16:18;99082.41;;;8.10;74.02
3294;BME280;1659;51.470;6.770;2024-02-23T10:18:45;99081.66;;;8.06;73.55
3294;BME280;1659;51.470;6.770;2024-02-23T10:21:12;99081.81;;;8.02;73.29
3294;BME280;1659;51.470;6.770;2024-02-23T10:23:38;99082.84;;;7.98;73.73
3294;BME280;1659;51.470;6.770;2024-02-23T10:26:07;99084.63;;;7.97;74.69
3294;BME280;1659;51.470;6.770;2024-02-23T10:28:34;99101.25;;;7.98;74.88
3294;BME280;1659;51.470;6.770;2024-02-23T10:31:01;99068.81;;;7.99;74.93
3294;BME280;1659;51.470;6.770;2024-02-23T10:33:28;99089.56;;;8.06;75.00
3294;BME280;1659;51.470;6.770;2024-02-23T10:35:56;99083.22;;;8.12;73.44
3294;BME280;1659;51.470;6.770;2024-02-23T10:38:24;99089.22;;;8.16;73.83
3294;BME280;1659;51.470;6.770;2024-02-23T10:40:55;99098.75;;;8.20;72.67
3294;BME280;1659;51.470;6.770;2024-02-23T10:43:28;99098.00;;;8.16;72.45
3294;BME280;1659;51.470;6.770;2024-02-23T10:45:57;99093.78;;;8.10;73.14
3294;BME280;1659;51.470;6.770;2024-02-23T10:48:24;99094.78;;;8.08;73.23
3294;BME280;1659;51.470;6.770;2024-02-23T10:50:51;99096.56;;;8.07;72.93
3294;BME280;1659;51.470;6.770;2024-02-23T10:53:19;99107.06;;;8.07;73.04
3294;BME280;1659;51.470;6.770;2024-02-23T10:55:46;99121.97;;;8.07;72.17
3294;BME280;1659;51.470;6.770;2024-02-23T10:58:13;99107.06;;;8.07;71.24
3294;BME280;1659;51.470;6.770;2024-02-23T11:00:42;99107.88;;;8.09;71.16
3294;BME280;1659;51.470;6.770;2024-02-23T11:03:11;99107.78;;;8.12;71.65
3294;BME280;1659;51.470;6.770;2024-02-23T11:05:38;99102.34;;;8.17;71.27
3294;BME280;1659;51.470;6.770;2024-02-23T11:08:06;99109.22;;;8.21;71.67
3294;BME280;1659;51.470;6.770;2024-02-23T11:10:41;99111.72;;;8.24;70.80
3294;BME280;1659;51.470;6.770;2024-02-23T11:13:08;99101.13;;;8.26;71.88
3294;BME280;1659;51.470;6.770;2024-02-23T11:15:34;99105.50;;;8.27;71.55
3294;BME280;1659;51.470;6.770;2024-02-23T11:18:24;99113.41;;;8.27;71.41
3294;BME280;1659;51.470;6.770;2024-02-23T11:20:54;99121.28;;;8.27;71.17
3294;BME280;1659;51.470;6.770;2024-02-23T11:23:21;99117.88;;;8.25;70.65
3294;BME280;1659;51.470;6.770;2024-02-23T11:25:59;99102.13;;;8.23;70.34
3294;BME280;1659;51.470;6.770;2024-02-23T11:28:25;99107.38;;;8.23;70.88
3294;BME280;1659;51.470;6.770;2024-02-23T11:30:53;99124.88;;;8.24;71.16
3294;BME280;1659;51.470;6.770;2024-02-23T11:33:27;99106.50;;;8.23;70.70
3294;BME280;1659;51.470;6.770;2024-02-23T11:35:53;99110.91;;;8.22;72.09
3294;BME280;1659;51.470;6.770;2024-02-23T11:38:30;99103.03;;;8.22;71.70
3294;BME280;1659;51.470;6.770;2024-02-23T11:40:59;99101.25;;;8.23;71.80
3294;BME280;1659;51.470;6.770;2024-02-23T11:43:25;99103.97;;;8.21;70.27
3294;BME280;1659;51.470;6.770;2024-02-23T11:45:52;99108.34;;;8.21;70.79
3294;BME280;1659;51.470;6.770;2024-02-23T11:48:18;99118.00;;;8.20;71.53
3294;BME280;1659;51.470;6.770;2024-02-23T11:50:49;99109.22;;;8.21;72.23
3294;BME280;1659;51.470;6.770;2024-02-23T11:53:16;99110.91;;;8.22;73.24
3294;BME280;1659;51.470;6.770;2024-02-23T11:55:44;99102.97;;;8.24;73.26
3294;BME280;1659;51.470;6.770;2024-02-23T11:58:11;99110.81;;;8.25;73.37
3294;BME280;1659;51.470;6.770;2024-02-23T12:00:39;99107.25;;;8.26;73.19
3294;BME280;1659;51.470;6.770;2024-02-23T12:03:06;99105.44;;;8.28;73.10
3294;BME280;1659;51.470;6.770;2024-02-23T12:05:32;99112.31;;;8.32;73.30
3294;BME280;1659;51.470;6.770;2024-02-23T12:08:00;99098.94;;;8.39;72.90
3294;BME280;1659;51.470;6.770;2024-02-23T12:10:28;99100.31;;;8.49;73.23
3294;BME280;1659;51.470;6.770;2024-02-23T12:12:55;99080.47;;;8.64;73.50
3294;BME280;1659;51.470;6.770;2024-02-23T12:15:22;99088.81;;;8.75;72.66
3294;BME280;1659;51.470;6.770;2024-02-23T12:17:49;99109.66;;;8.81;70.53
3294;BME280;1659;51.470;6.770;2024-02-23T12:20:16;99101.03;;;8.78;71.31
3294;BME280;1659;51.470;6.770;2024-02-23T12:22:42;99095.03;;;8.74;72.01
3294;BME280;1659;51.470;6.770;2024-02-23T12:25:11;99097.75;;;8.71;72.19
3294;BME280;1659;51.470;6.770;2024-02-23T12:27:38;99098.00;;;8.65;72.08
3294;BME280;1659;51.470;6.770;2024-02-23T12:30:06;99097.38;;;8.58;72.35
3294;BME280;1659;51.470;6.770;2024-02-23T12:32:34;99103.66;;;8.54;72.76
3294;BME280;1659;51.470;6.770;2024-02-23T12:35:00;99101.00;;;8.54;73.27
3294;BME280;1659;51.470;6.770;2024-02-23T12:37:27;99109.84;;;8.53;72.91
3294;BME280;1659;51.470;6.770;2024-02-23T12:39:53;99101.91;;;8.55;72.76
3294;BME280;1659;51.470;6.770;2024-02-23T12:42:21;99100.13;;;8.55;72.84
3294;BME280;1659;51.470;6.770;2024-02-23T12:44:48;99113.34;;;8.54;72.84
3294;BME280;1659;51.470;6.770;2024-02-23T12:47:14;99103.59;;;8.56;73.09
3294;BME280;1659;51.470;6.770;2024-02-23T12:49:41;99104.22;;;8.62;73.75
3294;BME280;1659;51.470;6.770;2024-02-23T12:52:07;99100.34;;;8.73;74.62
3294;BME280;1659;51.470;6.770;2024-02-23T12:54:34;99099.03;;;8.84;73.75
3294;BME280;1659;51.470;6.770;2024-02-23T12:57:01;99105.66;;;8.95;73.46
3294;BME280;1659;51.470;6.770;2024-02-23T12:59:28;99105.28;;;9.04;73.00
3294;BME280;1659;51.470;6.770;2024-02-23T13:01:55;99103.38;;;9.07;73.51
3294;BME280;1659;51.470;6.770;2024-02-23T13:04:22;99119.09;;;9.11;73.88
3294;BME280;1659;51.470;6.770;2024-02-23T13:06:49;99107.72;;;9.08;74.01
3294;BME280;1659;51.470;6.770;2024-02-23T13:09:15;99113.13;;;9.05;74.01
3294;BME280;1659;51.470;6.770;2024-02-23T13:11:42;99109.81;;;9.00;73.23
3294;BME280;1659;51.470;6.770;2024-02-23T13:14:08;99106.38;;;8.98;73.06
3294;BME280;1659;51.470;6.770;2024-02-23T13:16:37;99115.09;;;9.00;72.84
3294;BME280;1659;51.470;6.770;2024-02-23T13:19:03;99118.25;;;9.08;73.73
3294;BME280;1659;51.470;6.770;2024-02-23T13:21:30;99105.59;;;9.18;74.58
3294;BME280;1659;51.470;6.770;2024-02-23T13:23:57;99091.06;;;9.30;75.08
3294;BME280;1659;51.470;6.770;2024-02-23T13:26:24;99120.69;;;9.37;73.67
3294;BME280;1659;51.470;6.770;2024-02-23T13:28:50;99117.06;;;9.82;74.22